Terminal Aerodrome Forecast
Issued by NWS

Home | Current Version | Previous Version | Graphics & Text | Print | Product List | Glossary On
Versions: 1 2 3 4 5 6 7 8 9 10 11 12 13 14
000
FTUS43 KIWX 221741
TAFSBN
TAF
KSBN 221741Z 2218/2318 20017G23KT P6SM BKN200
     FM230000 20014KT P6SM VCTS BKN020CB
     FM230500 20011KT P6SM SHRA VCTS OVC010CB
      TEMPO 2309/2313 22010KT 5SM TSRA OVC008CB
     FM231300 25008KT P6SM OVC015
     FM231600 31010KT P6SM BKN060=

USA.gov is the U.S. government's official web portal to all federal, state and local government web resources and services.